sensor_id;sensor_type;location;lat;lon;timestamp;P1;durP1;ratioP1;P2;durP2;ratioP2
54121;SDS011;40029;58.708;50.190;2023-04-26T00:02:08;21.52;;;3.70;;
54121;SDS011;40029;58.708;50.190;2023-04-26T00:04:41;9.70;;;3.17;;
54121;SDS011;40029;58.708;50.190;2023-04-26T00:07:12;15.43;;;3.42;;
54121;SDS011;40029;58.708;50.190;2023-04-26T00:09:43;11.05;;;3.97;;
54121;SDS011;40029;58.708;50.190;2023-04-26T00:12:14;14.80;;;4.32;;
54121;SDS011;40029;58.708;50.190;2023-04-26T00:14:46;30.70;;;4.70;;
54121;SDS011;40029;58.708;50.190;2023-04-26T00:17:18;18.95;;;4.57;;
54121;SDS011;40029;58.708;50.190;2023-04-26T00:19:49;21.83;;;3.95;;
54121;SDS011;40029;58.708;50.190;2023-04-26T00:22:20;8.50;;;3.35;;
54121;SDS011;40029;58.708;50.190;2023-04-26T00:24:51;13.60;;;3.90;;
54121;SDS011;40029;58.708;50.190;2023-04-26T00:27:23;9.80;;;3.45;;
54121;SDS011;40029;58.708;50.190;2023-04-26T00:29:54;11.48;;;4.75;;
54121;SDS011;40029;58.708;50.190;2023-04-26T00:32:25;18.48;;;4.10;;
54121;SDS011;40029;58.708;50.190;2023-04-26T00:34:56;14.75;;;4.40;;
54121;SDS011;40029;58.708;50.190;2023-04-26T00:37:27;14.10;;;3.92;;
54121;SDS011;40029;58.708;50.190;2023-04-26T00:39:59;10.52;;;3.83;;
54121;SDS011;40029;58.708;50.190;2023-04-26T00:42:30;13.05;;;3.17;;
54121;SDS011;40029;58.708;50.190;2023-04-26T00:45:01;11.07;;;3.03;;
54121;SDS011;40029;58.708;50.190;2023-04-26T00:47:36;14.63;;;3.30;;
54121;SDS011;40029;58.708;50.190;2023-04-26T00:50:08;10.75;;;3.45;;
54121;SDS011;40029;58.708;50.190;2023-04-26T00:52:40;12.00;;;3.22;;
54121;SDS011;40029;58.708;50.190;2023-04-26T00:55:11;19.30;;;3.83;;
54121;SDS011;40029;58.708;50.190;2023-04-26T00:58:02;12.70;;;3.33;;
54121;SDS011;40029;58.708;50.190;2023-04-26T01:00:34;11.63;;;3.40;;
54121;SDS011;40029;58.708;50.190;2023-04-26T01:03:05;11.95;;;3.30;;
54121;SDS011;40029;58.708;50.190;2023-04-26T01:05:54;11.45;;;3.58;;
54121;SDS011;40029;58.708;50.190;2023-04-26T01:08:25;17.85;;;4.05;;
54121;SDS011;40029;58.708;50.190;2023-04-26T01:10:57;11.48;;;3.13;;
54121;SDS011;40029;58.708;50.190;2023-04-26T01:13:30;7.00;;;3.10;;
54121;SDS011;40029;58.708;50.190;2023-04-26T01:16:01;11.75;;;3.30;;
54121;SDS011;40029;58.708;50.190;2023-04-26T01:18:34;7.72;;;3.47;;
54121;SDS011;40029;58.708;50.190;2023-04-26T01:21:06;9.98;;;3.47;;
54121;SDS011;40029;58.708;50.190;2023-04-26T01:23:37;7.78;;;3.30;;
54121;SDS011;40029;58.708;50.190;2023-04-26T01:26:09;10.18;;;3.50;;
54121;SDS011;40029;58.708;50.190;2023-04-26T01:28:40;14.93;;;3.30;;
54121;SDS011;40029;58.708;50.190;2023-04-26T01:31:12;9.45;;;3.92;;
54121;SDS011;40029;58.708;50.190;2023-04-26T01:33:43;13.25;;;3.50;;
54121;SDS011;40029;58.708;50.190;2023-04-26T01:36:15;14.35;;;3.55;;
54121;SDS011;40029;58.708;50.190;2023-04-26T01:38:47;8.57;;;3.38;;
54121;SDS011;40029;58.708;50.190;2023-04-26T01:41:18;13.98;;;4.18;;
54121;SDS011;40029;58.708;50.190;2023-04-26T01:44:07;10.50;;;3.70;;
54121;SDS011;40029;58.708;50.190;2023-04-26T01:46:38;18.85;;;3.88;;
54121;SDS011;40029;58.708;50.190;2023-04-26T01:49:10;13.73;;;3.53;;
54121;SDS011;40029;58.708;50.190;2023-04-26T01:51:41;9.95;;;3.38;;
54121;SDS011;40029;58.708;50.190;2023-04-26T01:54:12;17.58;;;3.80;;
54121;SDS011;40029;58.708;50.190;2023-04-26T01:56:43;10.60;;;3.65;;
54121;SDS011;40029;58.708;50.190;2023-04-26T01:59:15;11.88;;;4.20;;
54121;SDS011;40029;58.708;50.190;2023-04-26T02:01:46;17.85;;;3.50;;
54121;SDS011;40029;58.708;50.190;2023-04-26T02:04:18;10.70;;;3.22;;
54121;SDS011;40029;58.708;50.190;2023-04-26T02:06:49;13.77;;;3.78;;
54121;SDS011;40029;58.708;50.190;2023-04-26T02:09:20;15.77;;;3.20;;
54121;SDS011;40029;58.708;50.190;2023-04-26T02:11:51;13.23;;;3.83;;
54121;SDS011;40029;58.708;50.190;2023-04-26T02:14:41;7.65;;;3.10;;
54121;SDS011;40029;58.708;50.190;2023-04-26T02:17:14;8.10;;;3.38;;
54121;SDS011;40029;58.708;50.190;2023-04-26T02:20:04;8.68;;;3.42;;
54121;SDS011;40029;58.708;50.190;2023-04-26T02:22:40;7.13;;;3.45;;
54121;SDS011;40029;58.708;50.190;2023-04-26T02:25:11;15.27;;;3.33;;
54121;SDS011;40029;58.708;50.190;2023-04-26T02:27:42;11.98;;;3.90;;
54121;SDS011;40029;58.708;50.190;2023-04-26T02:30:14;16.27;;;3.78;;
54121;SDS011;40029;58.708;50.190;2023-04-26T02:32:45;12.55;;;3.45;;
54121;SDS011;40029;58.708;50.190;2023-04-26T02:35:35;10.40;;;3.17;;
54121;SDS011;40029;58.708;50.190;2023-04-26T02:38:08;10.60;;;3.25;;
54121;SDS011;40029;58.708;50.190;2023-04-26T02:40:40;8.10;;;4.25;;
54121;SDS011;40029;58.708;50.190;2023-04-26T02:43:12;8.85;;;3.30;;
54121;SDS011;40029;58.708;50.190;2023-04-26T02:45:43;8.65;;;4.28;;
54121;SDS011;40029;58.708;50.190;2023-04-26T02:48:17;11.05;;;4.15;;
54121;SDS011;40029;58.708;50.190;2023-04-26T02:50:49;6.30;;;4.15;;
54121;SDS011;40029;58.708;50.190;2023-04-26T02:53:20;11.00;;;4.03;;
54121;SDS011;40029;58.708;50.190;2023-04-26T02:56:10;9.90;;;4.00;;
54121;SDS011;40029;58.708;50.190;2023-04-26T02:58:41;8.38;;;4.00;;
54121;SDS011;40029;58.708;50.190;2023-04-26T03:01:12;9.32;;;4.07;;
54121;SDS011;40029;58.708;50.190;2023-04-26T03:03:46;9.18;;;4.47;;
54121;SDS011;40029;58.708;50.190;2023-04-26T03:06:17;9.43;;;4.32;;
54121;SDS011;40029;58.708;50.190;2023-04-26T03:08:48;12.45;;;5.18;;
54121;SDS011;40029;58.708;50.190;2023-04-26T03:11:38;10.73;;;4.75;;
54121;SDS011;40029;58.708;50.190;2023-04-26T03:14:28;7.93;;;4.88;;
54121;SDS011;40029;58.708;50.190;2023-04-26T03:17:00;10.75;;;4.95;;
54121;SDS011;40029;58.708;50.190;2023-04-26T03:19:50;11.45;;;4.43;;
54121;SDS011;40029;58.708;50.190;2023-04-26T03:22:22;10.10;;;4.57;;
54121;SDS011;40029;58.708;50.190;2023-04-26T03:24:53;9.70;;;4.50;;
54121;SDS011;40029;58.708;50.190;2023-04-26T03:27:24;12.57;;;5.13;;
54121;SDS011;40029;58.708;50.190;2023-04-26T03:29:56;14.10;;;5.53;;
54121;SDS011;40029;58.708;50.190;2023-04-26T03:32:27;10.98;;;4.40;;
54121;SDS011;40029;58.708;50.190;2023-04-26T03:34:58;11.18;;;4.65;;
54121;SDS011;40029;58.708;50.190;2023-04-26T03:37:30;7.93;;;4.63;;
54121;SDS011;40029;58.708;50.190;2023-04-26T03:40:07;16.67;;;4.65;;
54121;SDS011;40029;58.708;50.190;2023-04-26T03:42:39;12.45;;;5.20;;
54121;SDS011;40029;58.708;50.190;2023-04-26T03:45:10;10.38;;;5.50;;
54121;SDS011;40029;58.708;50.190;2023-04-26T03:47:41;10.90;;;4.88;;
54121;SDS011;40029;58.708;50.190;2023-04-26T03:50:13;9.90;;;4.57;;
54121;SDS011;40029;58.708;50.190;2023-04-26T03:52:44;11.85;;;5.15;;
54121;SDS011;40029;58.708;50.190;2023-04-26T03:55:15;7.65;;;4.38;;
54121;SDS011;40029;58.708;50.190;2023-04-26T03:57:47;13.95;;;4.90;;
54121;SDS011;40029;58.708;50.190;2023-04-26T04:00:19;11.80;;;4.80;;
54121;SDS011;40029;58.708;50.190;2023-04-26T04:02:52;9.23;;;4.72;;
54121;SDS011;40029;58.708;50.190;2023-04-26T04:05:28;9.95;;;4.70;;
54121;SDS011;40029;58.708;50.190;2023-04-26T04:08:01;9.68;;;4.50;;
54121;SDS011;40029;58.708;50.190;2023-04-26T04:10:33;15.63;;;5.35;;
54121;SDS011;40029;58.708;50.190;2023-04-26T04:13:06;10.50;;;4.65;;
54121;SDS011;40029;58.708;50.190;2023-04-26T04:15:37;15.40;;;7.78;;
54121;SDS011;40029;58.708;50.190;2023-04-26T04:18:27;12.30;;;5.50;;
54121;SDS011;40029;58.708;50.190;2023-04-26T04:20:58;10.85;;;4.63;;
54121;SDS011;40029;58.708;50.190;2023-04-26T04:23:30;8.65;;;4.50;;
54121;SDS011;40029;58.708;50.190;2023-04-26T04:26:02;15.65;;;5.70;;
54121;SDS011;40029;58.708;50.190;2023-04-26T04:28:34;9.52;;;5.80;;
54121;SDS011;40029;58.708;50.190;2023-04-26T04:31:05;11.27;;;5.25;;
54121;SDS011;40029;58.708;50.190;2023-04-26T04:33:37;17.98;;;6.28;;
54121;SDS011;40029;58.708;50.190;2023-04-26T04:36:10;11.93;;;5.93;;
54121;SDS011;40029;58.708;50.190;2023-04-26T04:38:41;15.73;;;6.75;;
54121;SDS011;40029;58.708;50.190;2023-04-26T04:41:14;12.55;;;5.82;;
54121;SDS011;40029;58.708;50.190;2023-04-26T04:43:45;7.60;;;5.22;;
54121;SDS011;40029;58.708;50.190;2023-04-26T04:46:17;10.13;;;4.88;;
54121;SDS011;40029;58.708;50.190;2023-04-26T04:48:48;9.07;;;5.85;;
54121;SDS011;40029;58.708;50.190;2023-04-26T04:51:20;7.15;;;4.85;;
54121;SDS011;40029;58.708;50.190;2023-04-26T04:53:51;11.23;;;5.30;;
54121;SDS011;40029;58.708;50.190;2023-04-26T04:56:23;10.40;;;4.35;;
54121;SDS011;40029;58.708;50.190;2023-04-26T04:58:55;12.32;;;5.47;;
54121;SDS011;40029;58.708;50.190;2023-04-26T05:01:45;7.53;;;4.40;;
54121;SDS011;40029;58.708;50.190;2023-04-26T05:04:18;9.15;;;5.43;;
54121;SDS011;40029;58.708;50.190;2023-04-26T05:06:50;9.02;;;5.47;;
54121;SDS011;40029;58.708;50.190;2023-04-26T05:09:43;12.60;;;5.68;;
54121;SDS011;40029;58.708;50.190;2023-04-26T05:12:15;10.35;;;5.95;;
54121;SDS011;40029;58.708;50.190;2023-04-26T05:14:46;12.23;;;5.25;;
54121;SDS011;40029;58.708;50.190;2023-04-26T05:17:17;6.80;;;4.75;;
54121;SDS011;40029;58.708;50.190;2023-04-26T05:19:49;9.38;;;5.45;;
54121;SDS011;40029;58.708;50.190;2023-04-26T05:22:20;14.55;;;6.03;;
54121;SDS011;40029;58.708;50.190;2023-04-26T05:24:52;8.63;;;5.20;;
54121;SDS011;40029;58.708;50.190;2023-04-26T05:27:23;12.77;;;5.28;;
54121;SDS011;40029;58.708;50.190;2023-04-26T05:30:12;10.80;;;4.97;;
54121;SDS011;40029;58.708;50.190;2023-04-26T05:33:03;11.35;;;6.10;;
54121;SDS011;40029;58.708;50.190;2023-04-26T05:35:59;10.40;;;4.90;;
54121;SDS011;40029;58.708;50.190;2023-04-26T05:38:31;10.88;;;4.70;;
54121;SDS011;40029;58.708;50.190;2023-04-26T05:41:02;7.53;;;4.47;;
54121;SDS011;40029;58.708;50.190;2023-04-26T05:43:33;6.75;;;4.30;;
54121;SDS011;40029;58.708;50.190;2023-04-26T05:46:05;7.72;;;4.32;;
54121;SDS011;40029;58.708;50.190;2023-04-26T05:48:36;11.50;;;4.65;;
54121;SDS011;40029;58.708;50.190;2023-04-26T05:51:07;6.80;;;4.57;;
54121;SDS011;40029;58.708;50.190;2023-04-26T05:53:38;8.38;;;4.72;;
54121;SDS011;40029;58.708;50.190;2023-04-26T05:56:10;9.02;;;5.53;;
54121;SDS011;40029;58.708;50.190;2023-04-26T05:58:41;9.40;;;4.47;;
54121;SDS011;40029;58.708;50.190;2023-04-26T06:01:31;11.32;;;5.38;;
54121;SDS011;40029;58.708;50.190;2023-04-26T06:04:03;10.35;;;6.07;;
54121;SDS011;40029;58.708;50.190;2023-04-26T06:06:43;12.68;;;5.10;;
54121;SDS011;40029;58.708;50.190;2023-04-26T06:09:14;12.65;;;4.70;;
54121;SDS011;40029;58.708;50.190;2023-04-26T06:11:45;9.48;;;5.25;;
54121;SDS011;40029;58.708;50.190;2023-04-26T06:14:16;10.93;;;4.93;;
54121;SDS011;40029;58.708;50.190;2023-04-26T06:16:49;9.68;;;5.70;;
54121;SDS011;40029;58.708;50.190;2023-04-26T06:19:20;8.10;;;5.13;;
54121;SDS011;40029;58.708;50.190;2023-04-26T06:21:51;7.82;;;4.72;;
54121;SDS011;40029;58.708;50.190;2023-04-26T06:24:24;8.20;;;5.07;;
54121;SDS011;40029;58.708;50.190;2023-04-26T06:26:55;9.45;;;4.68;;
54121;SDS011;40029;58.708;50.190;2023-04-26T06:29:29;9.88;;;5.20;;
54121;SDS011;40029;58.708;50.190;2023-04-26T06:32:02;8.32;;;5.00;;
54121;SDS011;40029;58.708;50.190;2023-04-26T06:34:34;10.45;;;5.22;;
54121;SDS011;40029;58.708;50.190;2023-04-26T06:37:06;7.72;;;4.90;;
54121;SDS011;40029;58.708;50.190;2023-04-26T06:39:41;8.65;;;5.18;;
54121;SDS011;40029;58.708;50.190;2023-04-26T06:42:12;5.78;;;5.18;;
54121;SDS011;40029;58.708;50.190;2023-04-26T06:45:12;8.73;;;5.40;;
54121;SDS011;40029;58.708;50.190;2023-04-26T06:47:43;8.90;;;5.65;;
54121;SDS011;40029;58.708;50.190;2023-04-26T06:50:36;7.25;;;4.70;;
54121;SDS011;40029;58.708;50.190;2023-04-26T06:53:09;7.70;;;4.80;;
54121;SDS011;40029;58.708;50.190;2023-04-26T06:55:40;11.70;;;4.90;;
54121;SDS011;40029;58.708;50.190;2023-04-26T06:58:11;9.50;;;4.63;;
54121;SDS011;40029;58.708;50.190;2023-04-26T07:00:42;9.57;;;4.97;;
54121;SDS011;40029;58.708;50.190;2023-04-26T07:03:32;5.43;;;4.60;;
54121;SDS011;40029;58.708;50.190;2023-04-26T07:06:03;9.75;;;4.50;;
54121;SDS011;40029;58.708;50.190;2023-04-26T07:08:35;7.95;;;5.13;;
54121;SDS011;40029;58.708;50.190;2023-04-26T07:11:09;7.93;;;5.55;;
54121;SDS011;40029;58.708;50.190;2023-04-26T07:13:42;9.70;;;5.05;;
54121;SDS011;40029;58.708;50.190;2023-04-26T07:16:13;8.77;;;5.05;;
54121;SDS011;40029;58.708;50.190;2023-04-26T07:18:44;7.22;;;4.30;;
54121;SDS011;40029;58.708;50.190;2023-04-26T07:21:17;5.80;;;3.92;;
54121;SDS011;40029;58.708;50.190;2023-04-26T07:23:52;4.95;;;3.13;;
54121;SDS011;40029;58.708;50.190;2023-04-26T07:26:25;8.88;;;4.03;;
54121;SDS011;40029;58.708;50.190;2023-04-26T07:28:56;6.13;;;3.90;;
54121;SDS011;40029;58.708;50.190;2023-04-26T07:31:27;4.00;;;3.60;;
54121;SDS011;40029;58.708;50.190;2023-04-26T07:33:58;5.18;;;3.40;;
54121;SDS011;40029;58.708;50.190;2023-04-26T07:36:29;4.38;;;3.20;;
54121;SDS011;40029;58.708;50.190;2023-04-26T07:39:01;6.32;;;3.42;;
54121;SDS011;40029;58.708;50.190;2023-04-26T07:41:34;5.97;;;3.33;;
54121;SDS011;40029;58.708;50.190;2023-04-26T07:44:06;3.58;;;2.90;;
54121;SDS011;40029;58.708;50.190;2023-04-26T07:46:37;6.50;;;3.70;;
54121;SDS011;40029;58.708;50.190;2023-04-26T07:49:08;5.60;;;3.67;;
54121;SDS011;40029;58.708;50.190;2023-04-26T07:51:42;8.50;;;4.13;;
54121;SDS011;40029;58.708;50.190;2023-04-26T07:54:15;5.68;;;3.72;;
54121;SDS011;40029;58.708;50.190;2023-04-26T07:56:46;7.78;;;3.92;;
54121;SDS011;40029;58.708;50.190;2023-04-26T07:59:17;5.60;;;3.88;;
54121;SDS011;40029;58.708;50.190;2023-04-26T08:01:48;7.15;;;3.78;;
54121;SDS011;40029;58.708;50.190;2023-04-26T08:04:28;7.57;;;3.65;;
54121;SDS011;40029;58.708;50.190;2023-04-26T08:07:04;10.55;;;4.10;;
54121;SDS011;40029;58.708;50.190;2023-04-26T08:09:35;7.22;;;4.50;;
54121;SDS011;40029;58.708;50.190;2023-04-26T08:12:06;15.10;;;4.50;;
54121;SDS011;40029;58.708;50.190;2023-04-26T08:14:37;5.55;;;3.75;;
54121;SDS011;40029;58.708;50.190;2023-04-26T08:17:08;15.75;;;4.18;;
54121;SDS011;40029;58.708;50.190;2023-04-26T08:19:58;14.18;;;4.80;;
54121;SDS011;40029;58.708;50.190;2023-04-26T08:22:29;8.25;;;4.30;;
54121;SDS011;40029;58.708;50.190;2023-04-26T08:25:00;12.40;;;4.55;;
54121;SDS011;40029;58.708;50.190;2023-04-26T08:27:32;14.00;;;4.75;;
54121;SDS011;40029;58.708;50.190;2023-04-26T08:30:04;9.57;;;5.25;;
54121;SDS011;40029;58.708;50.190;2023-04-26T08:32:38;13.70;;;4.95;;
54121;SDS011;40029;58.708;50.190;2023-04-26T08:35:10;14.05;;;5.15;;
54121;SDS011;40029;58.708;50.190;2023-04-26T08:37:42;19.45;;;4.72;;
54121;SDS011;40029;58.708;50.190;2023-04-26T08:40:13;13.43;;;5.28;;
54121;SDS011;40029;58.708;50.190;2023-04-26T08:42:51;17.85;;;5.10;;
54121;SDS011;40029;58.708;50.190;2023-04-26T08:45:44;26.60;;;5.63;;
54121;SDS011;40029;58.708;50.190;2023-04-26T08:48:36;18.75;;;5.22;;
54121;SDS011;40029;58.708;50.190;2023-04-26T08:51:08;18.77;;;5.80;;
54121;SDS011;40029;58.708;50.190;2023-04-26T08:53:42;27.88;;;5.15;;
54121;SDS011;40029;58.708;50.190;2023-04-26T08:56:14;12.55;;;4.90;;
54121;SDS011;40029;58.708;50.190;2023-04-26T08:58:45;21.55;;;5.43;;
54121;SDS011;40029;58.708;50.190;2023-04-26T09:01:16;21.05;;;5.63;;
54121;SDS011;40029;58.708;50.190;2023-04-26T09:03:49;20.27;;;4.85;;
54121;SDS011;40029;58.708;50.190;2023-04-26T09:06:21;12.27;;;4.38;;
54121;SDS011;40029;58.708;50.190;2023-04-26T09:08:53;12.40;;;4.35;;
54121;SDS011;40029;58.708;50.190;2023-04-26T09:11:25;12.32;;;5.05;;
54121;SDS011;40029;58.708;50.190;2023-04-26T09:13:57;16.23;;;4.68;;
54121;SDS011;40029;58.708;50.190;2023-04-26T09:16:34;20.52;;;6.25;;
54121;SDS011;40029;58.708;50.190;2023-04-26T09:19:08;20.20;;;5.28;;
54121;SDS011;40029;58.708;50.190;2023-04-26T09:21:43;9.80;;;4.47;;
54121;SDS011;40029;58.708;50.190;2023-04-26T09:24:16;20.77;;;5.10;;
54121;SDS011;40029;58.708;50.190;2023-04-26T09:26:52;15.95;;;4.38;;
54121;SDS011;40029;58.708;50.190;2023-04-26T09:29:32;23.48;;;4.90;;
54121;SDS011;40029;58.708;50.190;2023-04-26T09:32:22;17.95;;;4.53;;
54121;SDS011;40029;58.708;50.190;2023-04-26T09:34:54;20.40;;;5.10;;
54121;SDS011;40029;58.708;50.190;2023-04-26T09:37:25;15.00;;;5.00;;
54121;SDS011;40029;58.708;50.190;2023-04-26T09:39:56;11.13;;;4.65;;
54121;SDS011;40029;58.708;50.190;2023-04-26T09:42:27;20.00;;;6.07;;
54121;SDS011;40029;58.708;50.190;2023-04-26T09:45:05;16.90;;;5.15;;
54121;SDS011;40029;58.708;50.190;2023-04-26T09:47:36;12.48;;;4.72;;
54121;SDS011;40029;58.708;50.190;2023-04-26T09:50:07;19.58;;;4.50;;
54121;SDS011;40029;58.708;50.190;2023-04-26T09:52:42;16.55;;;4.28;;
54121;SDS011;40029;58.708;50.190;2023-04-26T09:55:18;23.95;;;4.78;;
54121;SDS011;40029;58.708;50.190;2023-04-26T09:57:57;11.55;;;4.28;;
54121;SDS011;40029;58.708;50.190;2023-04-26T10:00:30;37.92;;;5.07;;
54121;SDS011;40029;58.708;50.190;2023-04-26T10:03:01;13.95;;;4.50;;
54121;SDS011;40029;58.708;50.190;2023-04-26T10:05:35;11.95;;;4.90;;
54121;SDS011;40029;58.708;50.190;2023-04-26T10:08:07;12.07;;;4.68;;
54121;SDS011;40029;58.708;50.190;2023-04-26T10:10:38;12.73;;;4.88;;
54121;SDS011;40029;58.708;50.190;2023-04-26T10:13:10;15.05;;;4.47;;
54121;SDS011;40029;58.708;50.190;2023-04-26T10:15:42;13.43;;;4.95;;
54121;SDS011;40029;58.708;50.190;2023-04-26T10:18:15;10.07;;;4.28;;
54121;SDS011;40029;58.708;50.190;2023-04-26T10:20:47;12.57;;;4.53;;
54121;SDS011;40029;58.708;50.190;2023-04-26T10:23:22;21.67;;;5.53;;
54121;SDS011;40029;58.708;50.190;2023-04-26T10:25:55;18.27;;;4.55;;
54121;SDS011;40029;58.708;50.190;2023-04-26T10:31:19;19.88;;;4.80;;
54121;SDS011;40029;58.708;50.190;2023-04-26T10:37:23;18.33;;;5.18;;
54121;SDS011;40029;58.708;50.190;2023-04-26T10:39:48;17.05;;;4.70;;
54121;SDS011;40029;58.708;50.190;2023-04-26T10:44:54;18.75;;;4.50;;
54121;SDS011;40029;58.708;50.190;2023-04-26T10:47:30;17.52;;;5.00;;
54121;SDS011;40029;58.708;50.190;2023-04-26T10:50:07;14.63;;;4.82;;
54121;SDS011;40029;58.708;50.190;2023-04-26T10:53:14;14.10;;;4.57;;
54121;SDS011;40029;58.708;50.190;2023-04-26T10:55:41;11.48;;;4.50;;
54121;SDS011;40029;58.708;50.190;2023-04-26T10:58:31;12.20;;;4.65;;
54121;SDS011;40029;58.708;50.190;2023-04-26T11:01:05;20.27;;;5.15;;
54121;SDS011;40029;58.708;50.190;2023-04-26T11:03:36;17.63;;;4.72;;
54121;SDS011;40029;58.708;50.190;2023-04-26T11:06:08;21.10;;;4.72;;
54121;SDS011;40029;58.708;50.190;2023-04-26T11:08:43;18.50;;;4.82;;
54121;SDS011;40029;58.708;50.190;2023-04-26T11:11:15;17.73;;;5.25;;
54121;SDS011;40029;58.708;50.190;2023-04-26T11:13:49;23.67;;;4.65;;
54121;SDS011;40029;58.708;50.190;2023-04-26T11:16:20;18.05;;;5.35;;
54121;SDS011;40029;58.708;50.190;2023-04-26T11:18:56;21.50;;;5.32;;
54121;SDS011;40029;58.708;50.190;2023-04-26T11:21:27;23.02;;;5.45;;
54121;SDS011;40029;58.708;50.190;2023-04-26T11:23:58;15.60;;;4.50;;
54121;SDS011;40029;58.708;50.190;2023-04-26T11:26:51;15.02;;;5.07;;
54121;SDS011;40029;58.708;50.190;2023-04-26T11:29:25;25.02;;;4.50;;
54121;SDS011;40029;58.708;50.190;2023-04-26T11:31:57;20.85;;;5.22;;
54121;SDS011;40029;58.708;50.190;2023-04-26T11:34:31;18.65;;;5.22;;
54121;SDS011;40029;58.708;50.190;2023-04-26T11:37:04;32.90;;;5.63;;
54121;SDS011;40029;58.708;50.190;2023-04-26T11:39:36;19.00;;;4.72;;
54121;SDS011;40029;58.708;50.190;2023-04-26T11:42:26;28.00;;;5.90;;
54121;SDS011;40029;58.708;50.190;2023-04-26T11:44:57;23.83;;;6.63;;
54121;SDS011;40029;58.708;50.190;2023-04-26T11:47:31;26.25;;;5.68;;
54121;SDS011;40029;58.708;50.190;2023-04-26T11:50:04;32.88;;;6.65;;
54121;SDS011;40029;58.708;50.190;2023-04-26T11:52:37;31.02;;;6.90;;
54121;SDS011;40029;58.708;50.190;2023-04-26T11:55:09;26.30;;;5.50;;
54121;SDS011;40029;58.708;50.190;2023-04-26T11:57:40;31.88;;;6.30;;
54121;SDS011;40029;58.708;50.190;2023-04-26T12:00:12;33.72;;;6.20;;
54121;SDS011;40029;58.708;50.190;2023-04-26T12:02:48;35.38;;;6.43;;
54121;SDS011;40029;58.708;50.190;2023-04-26T12:08:00;33.40;;;5.43;;
54121;SDS011;40029;58.708;50.190;2023-04-26T12:10:49;20.40;;;5.53;;
54121;SDS011;40029;58.708;50.190;2023-04-26T12:13:20;32.72;;;5.80;;
54121;SDS011;40029;58.708;50.190;2023-04-26T12:15:51;26.42;;;6.15;;
54121;SDS011;40029;58.708;50.190;2023-04-26T12:18:28;26.88;;;6.80;;
54121;SDS011;40029;58.708;50.190;2023-04-26T12:21:01;18.85;;;5.53;;
54121;SDS011;40029;58.708;50.190;2023-04-26T12:23:37;23.33;;;6.10;;
54121;SDS011;40029;58.708;50.190;2023-04-26T12:26:09;24.05;;;5.97;;
54121;SDS011;40029;58.708;50.190;2023-04-26T12:28:41;29.65;;;7.32;;
54121;SDS011;40029;58.708;50.190;2023-04-26T12:31:12;24.33;;;6.40;;
54121;SDS011;40029;58.708;50.190;2023-04-26T12:33:44;28.70;;;6.93;;
54121;SDS011;40029;58.708;50.190;2023-04-26T12:36:15;40.42;;;7.13;;
54121;SDS011;40029;58.708;50.190;2023-04-26T12:38:46;22.75;;;6.57;;
54121;SDS011;40029;58.708;50.190;2023-04-26T12:41:17;30.85;;;6.60;;
54121;SDS011;40029;58.708;50.190;2023-04-26T12:43:48;31.98;;;5.82;;
54121;SDS011;40029;58.708;50.190;2023-04-26T12:46:20;24.08;;;5.43;;
54121;SDS011;40029;58.708;50.190;2023-04-26T12:49:09;27.67;;;5.45;;
54121;SDS011;40029;58.708;50.190;2023-04-26T12:51:40;25.08;;;5.57;;
54121;SDS011;40029;58.708;50.190;2023-04-26T12:54:30;30.85;;;6.07;;
54121;SDS011;40029;58.708;50.190;2023-04-26T12:57:01;26.42;;;7.00;;
54121;SDS011;40029;58.708;50.190;2023-04-26T12:59:32;25.20;;;6.50;;
54121;SDS011;40029;58.708;50.190;2023-04-26T13:02:03;24.42;;;6.70;;
54121;SDS011;40029;58.708;50.190;2023-04-26T13:04:35;31.63;;;6.82;;
54121;SDS011;40029;58.708;50.190;2023-04-26T13:07:06;22.83;;;6.40;;
54121;SDS011;40029;58.708;50.190;2023-04-26T13:09:37;30.95;;;6.95;;
54121;SDS011;40029;58.708;50.190;2023-04-26T13:12:09;28.35;;;6.15;;
54121;SDS011;40029;58.708;50.190;2023-04-26T13:14:40;34.88;;;7.00;;
54121;SDS011;40029;58.708;50.190;2023-04-26T13:17:11;26.60;;;5.90;;
54121;SDS011;40029;58.708;50.190;2023-04-26T13:19:42;24.52;;;6.45;;
54121;SDS011;40029;58.708;50.190;2023-04-26T13:22:34;33.90;;;5.80;;
54121;SDS011;40029;58.708;50.190;2023-04-26T13:25:06;20.52;;;5.25;;
54121;SDS011;40029;58.708;50.190;2023-04-26T13:27:37;29.88;;;5.68;;
54121;SDS011;40029;58.708;50.190;2023-04-26T13:30:09;26.55;;;5.35;;
54121;SDS011;40029;58.708;50.190;2023-04-26T13:32:59;31.52;;;5.72;;
54121;SDS011;40029;58.708;50.190;2023-04-26T13:35:30;31.00;;;6.57;;
54121;SDS011;40029;58.708;50.190;2023-04-26T13:38:01;28.70;;;6.13;;
54121;SDS011;40029;58.708;50.190;2023-04-26T13:40:32;32.47;;;6.75;;
54121;SDS011;40029;58.708;50.190;2023-04-26T13:43:03;26.75;;;5.13;;
54121;SDS011;40029;58.708;50.190;2023-04-26T13:45:53;35.90;;;6.38;;
54121;SDS011;40029;58.708;50.190;2023-04-26T13:48:25;34.55;;;7.00;;
54121;SDS011;40029;58.708;50.190;2023-04-26T13:50:56;37.03;;;6.57;;
54121;SDS011;40029;58.708;50.190;2023-04-26T13:53:28;26.55;;;6.78;;
54121;SDS011;40029;58.708;50.190;2023-04-26T13:55:59;40.53;;;13.02;;
54121;SDS011;40029;58.708;50.190;2023-04-26T13:58:30;52.97;;;14.48;;
54121;SDS011;40029;58.708;50.190;2023-04-26T14:01:01;31.38;;;8.73;;
54121;SDS011;40029;58.708;50.190;2023-04-26T14:03:33;30.98;;;7.85;;
54121;SDS011;40029;58.708;50.190;2023-04-26T14:06:04;32.17;;;6.55;;
54121;SDS011;40029;58.708;50.190;2023-04-26T14:08:36;23.08;;;4.80;;
54121;SDS011;40029;58.708;50.190;2023-04-26T14:11:07;32.97;;;5.22;;
54121;SDS011;40029;58.708;50.190;2023-04-26T14:13:39;37.45;;;5.53;;
54121;SDS011;40029;58.708;50.190;2023-04-26T14:16:10;37.20;;;6.03;;
54121;SDS011;40029;58.708;50.190;2023-04-26T14:18:42;30.40;;;7.53;;
54121;SDS011;40029;58.708;50.190;2023-04-26T14:21:15;43.33;;;8.35;;
54121;SDS011;40029;58.708;50.190;2023-04-26T14:23:46;30.55;;;7.07;;
54121;SDS011;40029;58.708;50.190;2023-04-26T14:26:17;28.50;;;6.07;;
54121;SDS011;40029;58.708;50.190;2023-04-26T14:28:49;25.58;;;5.40;;
54121;SDS011;40029;58.708;50.190;2023-04-26T14:31:21;45.60;;;6.50;;
54121;SDS011;40029;58.708;50.190;2023-04-26T14:33:55;31.08;;;5.55;;
54121;SDS011;40029;58.708;50.190;2023-04-26T14:36:45;24.65;;;5.45;;
54121;SDS011;40029;58.708;50.190;2023-04-26T14:39:16;53.83;;;12.85;;
54121;SDS011;40029;58.708;50.190;2023-04-26T14:41:47;45.33;;;15.52;;
54121;SDS011;40029;58.708;50.190;2023-04-26T14:44:19;39.15;;;10.68;;
54121;SDS011;40029;58.708;50.190;2023-04-26T14:46:52;37.05;;;9.95;;
54121;SDS011;40029;58.708;50.190;2023-04-26T14:49:24;47.92;;;8.85;;
54121;SDS011;40029;58.708;50.190;2023-04-26T14:51:55;40.17;;;10.45;;
54121;SDS011;40029;58.708;50.190;2023-04-26T14:54:26;44.33;;;11.15;;
54121;SDS011;40029;58.708;50.190;2023-04-26T14:56:57;38.47;;;9.75;;
54121;SDS011;40029;58.708;50.190;2023-04-26T14:59:28;37.70;;;9.70;;
54121;SDS011;40029;58.708;50.190;2023-04-26T15:02:00;25.70;;;7.80;;
54121;SDS011;40029;58.708;50.190;2023-04-26T15:04:31;30.13;;;7.93;;
54121;SDS011;40029;58.708;50.190;2023-04-26T15:07:02;43.38;;;9.48;;
54121;SDS011;40029;58.708;50.190;2023-04-26T15:09:33;33.70;;;8.50;;
54121;SDS011;40029;58.708;50.190;2023-04-26T15:12:05;31.75;;;7.95;;
54121;SDS011;40029;58.708;50.190;2023-04-26T15:14:36;31.52;;;7.55;;
54121;SDS011;40029;58.708;50.190;2023-04-26T15:17:07;33.03;;;6.70;;